sensor_id;sensor_type;location;lat;lon;timestamp;temperature;humidity
39865;DHT22;25538;48.392;9.976;2022-12-29T00:02:08;5.20;99.90
39865;DHT22;25538;48.392;9.976;2022-12-29T00:04:34;5.30;99.90
39865;DHT22;25538;48.392;9.976;2022-12-29T00:07:00;5.30;99.90
39865;DHT22;25538;48.392;9.976;2022-12-29T00:09:26;5.30;99.90
39865;DHT22;25538;48.392;9.976;2022-12-29T00:11:52;5.30;99.90
39865;DHT22;25538;48.392;9.976;2022-12-29T00:14:18;5.30;99.90
39865;DHT22;25538;48.392;9.976;2022-12-29T00:17:03;5.40;99.90
39865;DHT22;25538;48.392;9.976;2022-12-29T00:19:29;5.40;99.90
39865;DHT22;25538;48.392;9.976;2022-12-29T00:22:14;5.50;99.90
39865;DHT22;25538;48.392;9.976;2022-12-29T00:24:58;5.50;99.90
39865;DHT22;25538;48.392;9.976;2022-12-29T00:27:43;5.50;99.90
39865;DHT22;25538;48.392;9.976;2022-12-29T00:30:28;5.40;99.90
39865;DHT22;25538;48.392;9.976;2022-12-29T00:33:18;5.40;99.90
39865;DHT22;25538;48.392;9.976;2022-12-29T00:36:16;5.30;99.90
39865;DHT22;25538;48.392;9.976;2022-12-29T00:38:48;5.10;99.90
39865;DHT22;25538;48.392;9.976;2022-12-29T00:41:33;5.10;99.90
39865;DHT22;25538;48.392;9.976;2022-12-29T00:44:18;5.00;99.90
39865;DHT22;25538;48.392;9.976;2022-12-29T00:46:44;4.90;99.90
39865;DHT22;25538;48.392;9.976;2022-12-29T00:49:12;4.80;99.90
39865;DHT22;25538;48.392;9.976;2022-12-29T00:52:05;4.80;99.90
39865;DHT22;25538;48.392;9.976;2022-12-29T00:54:33;4.80;99.90
39865;DHT22;25538;48.392;9.976;2022-12-29T00:56:59;4.80;99.90
39865;DHT22;25538;48.392;9.976;2022-12-29T00:59:26;4.80;99.90
39865;DHT22;25538;48.392;9.976;2022-12-29T01:01:54;4.90;99.90
39865;DHT22;25538;48.392;9.976;2022-12-29T01:04:21;4.90;99.90
39865;DHT22;25538;48.392;9.976;2022-12-29T01:06:48;5.00;99.90
39865;DHT22;25538;48.392;9.976;2022-12-29T01:09:15;5.10;99.90
39865;DHT22;25538;48.392;9.976;2022-12-29T01:11:59;5.10;99.90
39865;DHT22;25538;48.392;9.976;2022-12-29T01:14:26;5.20;99.90
39865;DHT22;25538;48.392;9.976;2022-12-29T01:16:52;5.30;99.90
39865;DHT22;25538;48.392;9.976;2022-12-29T01:19:19;5.30;99.90
39865;DHT22;25538;48.392;9.976;2022-12-29T01:21:46;5.30;99.90
39865;DHT22;25538;48.392;9.976;2022-12-29T01:24:13;5.20;99.90
39865;DHT22;25538;48.392;9.976;2022-12-29T01:26:39;5.20;99.90
39865;DHT22;25538;48.392;9.976;2022-12-29T01:29:14;5.20;99.90
39865;DHT22;25538;48.392;9.976;2022-12-29T01:31:40;5.30;99.90
39865;DHT22;25538;48.392;9.976;2022-12-29T01:34:05;5.30;99.90
39865;DHT22;25538;48.392;9.976;2022-12-29T01:36:32;5.40;99.90
39865;DHT22;25538;48.392;9.976;2022-12-29T01:38:58;5.50;99.90
39865;DHT22;25538;48.392;9.976;2022-12-29T01:41:24;5.50;99.90
39865;DHT22;25538;48.392;9.976;2022-12-29T01:43:52;5.50;99.90
39865;DHT22;25538;48.392;9.976;2022-12-29T01:46:34;5.50;99.90
39865;DHT22;25538;48.392;9.976;2022-12-29T01:51:41;5.50;99.90
39865;DHT22;25538;48.392;9.976;2022-12-29T01:54:21;5.50;99.90
39865;DHT22;25538;48.392;9.976;2022-12-29T01:56:50;5.50;99.90
39865;DHT22;25538;48.392;9.976;2022-12-29T01:59:20;5.50;99.90
39865;DHT22;25538;48.392;9.976;2022-12-29T02:01:49;5.40;99.90
39865;DHT22;25538;48.392;9.976;2022-12-29T02:04:15;5.40;99.90
39865;DHT22;25538;48.392;9.976;2022-12-29T02:07:05;5.40;99.90
39865;DHT22;25538;48.392;9.976;2022-12-29T02:09:33;5.40;99.90
39865;DHT22;25538;48.392;9.976;2022-12-29T02:11:59;5.40;99.90
39865;DHT22;25538;48.392;9.976;2022-12-29T02:14:26;5.40;99.90
39865;DHT22;25538;48.392;9.976;2022-12-29T02:17:08;5.40;99.90
39865;DHT22;25538;48.392;9.976;2022-12-29T02:22:41;5.40;99.90
39865;DHT22;25538;48.392;9.976;2022-12-29T02:30:43;5.30;99.90
39865;DHT22;25538;48.392;9.976;2022-12-29T02:44:34;5.40;99.90
39865;DHT22;25538;48.392;9.976;2022-12-29T02:47:09;5.40;99.90
39865;DHT22;25538;48.392;9.976;2022-12-29T02:49:45;5.40;99.90
39865;DHT22;25538;48.392;9.976;2022-12-29T02:52:19;5.50;99.90
39865;DHT22;25538;48.392;9.976;2022-12-29T02:54:48;5.50;99.90
39865;DHT22;25538;48.392;9.976;2022-12-29T02:59:45;5.60;99.90
39865;DHT22;25538;48.392;9.976;2022-12-29T03:07:48;5.60;99.90
39865;DHT22;25538;48.392;9.976;2022-12-29T03:21:44;5.80;99.90
39865;DHT22;25538;48.392;9.976;2022-12-29T03:24:33;5.70;99.90
39865;DHT22;25538;48.392;9.976;2022-12-29T03:27:02;5.80;99.90
39865;DHT22;25538;48.392;9.976;2022-12-29T03:29:31;5.80;99.90
39865;DHT22;25538;48.392;9.976;2022-12-29T03:31:59;5.80;99.90
39865;DHT22;25538;48.392;9.976;2022-12-29T03:34:26;5.80;99.90
39865;DHT22;25538;48.392;9.976;2022-12-29T03:37:16;5.90;99.90
39865;DHT22;25538;48.392;9.976;2022-12-29T03:39:41;5.90;99.90
39865;DHT22;25538;48.392;9.976;2022-12-29T03:42:22;5.90;99.90
39865;DHT22;25538;48.392;9.976;2022-12-29T03:44:54;5.90;99.90
39865;DHT22;25538;48.392;9.976;2022-12-29T03:47:22;6.00;99.90
39865;DHT22;25538;48.392;9.976;2022-12-29T03:49:48;5.90;99.90
39865;DHT22;25538;48.392;9.976;2022-12-29T03:52:15;6.00;99.90
39865;DHT22;25538;48.392;9.976;2022-12-29T03:54:41;6.00;99.90
39865;DHT22;25538;48.392;9.976;2022-12-29T03:57:07;6.00;99.90
39865;DHT22;25538;48.392;9.976;2022-12-29T03:59:33;6.00;99.90
39865;DHT22;25538;48.392;9.976;2022-12-29T04:01:59;6.00;99.90
39865;DHT22;25538;48.392;9.976;2022-12-29T04:04:25;6.00;99.90
39865;DHT22;25538;48.392;9.976;2022-12-29T04:06:51;6.00;99.90
39865;DHT22;25538;48.392;9.976;2022-12-29T04:09:17;6.00;99.90
39865;DHT22;25538;48.392;9.976;2022-12-29T04:11:43;6.00;99.90
39865;DHT22;25538;48.392;9.976;2022-12-29T04:14:09;6.00;99.90
39865;DHT22;25538;48.392;9.976;2022-12-29T04:16:34;6.10;99.90
39865;DHT22;25538;48.392;9.976;2022-12-29T04:19:05;6.10;99.90
39865;DHT22;25538;48.392;9.976;2022-12-29T04:21:31;6.20;99.90
39865;DHT22;25538;48.392;9.976;2022-12-29T04:23:57;6.20;99.90
39865;DHT22;25538;48.392;9.976;2022-12-29T04:26:23;6.20;99.90
39865;DHT22;25538;48.392;9.976;2022-12-29T04:28:49;6.10;99.90
39865;DHT22;25538;48.392;9.976;2022-12-29T04:31:15;6.10;99.90
39865;DHT22;25538;48.392;9.976;2022-12-29T04:33:41;6.10;99.90
39865;DHT22;25538;48.392;9.976;2022-12-29T04:36:06;6.10;99.90
39865;DHT22;25538;48.392;9.976;2022-12-29T04:38:32;6.10;99.90
39865;DHT22;25538;48.392;9.976;2022-12-29T04:41:01;6.10;99.90
39865;DHT22;25538;48.392;9.976;2022-12-29T04:43:28;6.10;99.90
39865;DHT22;25538;48.392;9.976;2022-12-29T04:45:54;6.10;99.90
39865;DHT22;25538;48.392;9.976;2022-12-29T04:48:20;6.00;99.90
39865;DHT22;25538;48.392;9.976;2022-12-29T04:50:48;6.00;99.90
39865;DHT22;25538;48.392;9.976;2022-12-29T04:53:15;6.00;99.90
39865;DHT22;25538;48.392;9.976;2022-12-29T04:55:41;6.00;99.90
39865;DHT22;25538;48.392;9.976;2022-12-29T04:58:07;6.00;99.90
39865;DHT22;25538;48.392;9.976;2022-12-29T05:00:32;5.90;99.90
39865;DHT22;25538;48.392;9.976;2022-12-29T05:02:58;6.00;99.90
39865;DHT22;25538;48.392;9.976;2022-12-29T05:05:24;5.90;99.90
39865;DHT22;25538;48.392;9.976;2022-12-29T05:07:51;5.90;99.90
39865;DHT22;25538;48.392;9.976;2022-12-29T05:10:16;5.90;99.90
39865;DHT22;25538;48.392;9.976;2022-12-29T05:12:42;5.80;99.90
39865;DHT22;25538;48.392;9.976;2022-12-29T05:15:10;5.80;99.90
39865;DHT22;25538;48.392;9.976;2022-12-29T05:17:36;5.80;99.90
39865;DHT22;25538;48.392;9.976;2022-12-29T05:20:04;5.70;99.90
39865;DHT22;25538;48.392;9.976;2022-12-29T05:22:30;5.70;99.90
39865;DHT22;25538;48.392;9.976;2022-12-29T05:24:56;5.70;99.90
39865;DHT22;25538;48.392;9.976;2022-12-29T05:27:22;5.70;99.90
39865;DHT22;25538;48.392;9.976;2022-12-29T05:29:47;5.70;99.90
39865;DHT22;25538;48.392;9.976;2022-12-29T05:32:13;5.70;99.90
39865;DHT22;25538;48.392;9.976;2022-12-29T05:34:39;5.70;99.90
39865;DHT22;25538;48.392;9.976;2022-12-29T05:37:05;5.70;99.90
39865;DHT22;25538;48.392;9.976;2022-12-29T05:39:31;5.70;99.90
39865;DHT22;25538;48.392;9.976;2022-12-29T05:41:57;5.70;99.90
39865;DHT22;25538;48.392;9.976;2022-12-29T05:44:23;5.70;99.90
39865;DHT22;25538;48.392;9.976;2022-12-29T05:46:49;5.60;99.90
39865;DHT22;25538;48.392;9.976;2022-12-29T05:49:15;5.60;99.90
39865;DHT22;25538;48.392;9.976;2022-12-29T05:51:41;5.50;99.90
39865;DHT22;25538;48.392;9.976;2022-12-29T05:54:07;5.50;99.90
39865;DHT22;25538;48.392;9.976;2022-12-29T05:56:33;5.50;99.90
39865;DHT22;25538;48.392;9.976;2022-12-29T05:58:59;5.50;99.90
39865;DHT22;25538;48.392;9.976;2022-12-29T06:01:25;5.60;99.90
39865;DHT22;25538;48.392;9.976;2022-12-29T06:03:51;5.60;99.90
39865;DHT22;25538;48.392;9.976;2022-12-29T06:06:17;5.60;99.90
39865;DHT22;25538;48.392;9.976;2022-12-29T06:08:43;5.60;99.90
39865;DHT22;25538;48.392;9.976;2022-12-29T06:11:09;5.60;99.90
39865;DHT22;25538;48.392;9.976;2022-12-29T06:13:34;5.60;99.90
39865;DHT22;25538;48.392;9.976;2022-12-29T06:16:01;5.60;99.90
39865;DHT22;25538;48.392;9.976;2022-12-29T06:18:27;5.60;99.90
39865;DHT22;25538;48.392;9.976;2022-12-29T06:20:53;5.60;99.90
39865;DHT22;25538;48.392;9.976;2022-12-29T06:23:19;5.70;99.90
39865;DHT22;25538;48.392;9.976;2022-12-29T06:25:47;5.80;99.90
39865;DHT22;25538;48.392;9.976;2022-12-29T06:28:13;5.80;99.90
39865;DHT22;25538;48.392;9.976;2022-12-29T06:30:39;5.80;99.90
39865;DHT22;25538;48.392;9.976;2022-12-29T06:33:05;5.70;99.90
39865;DHT22;25538;48.392;9.976;2022-12-29T06:35:33;5.70;99.90
39865;DHT22;25538;48.392;9.976;2022-12-29T06:37:59;5.70;99.90
39865;DHT22;25538;48.392;9.976;2022-12-29T06:40:25;5.70;99.90
39865;DHT22;25538;48.392;9.976;2022-12-29T06:42:51;5.70;99.90
39865;DHT22;25538;48.392;9.976;2022-12-29T06:45:17;5.70;99.90
39865;DHT22;25538;48.392;9.976;2022-12-29T06:47:43;5.70;99.90
39865;DHT22;25538;48.392;9.976;2022-12-29T06:50:09;5.70;99.90
39865;DHT22;25538;48.392;9.976;2022-12-29T06:52:34;5.70;99.90
39865;DHT22;25538;48.392;9.976;2022-12-29T06:55:01;5.60;99.90
39865;DHT22;25538;48.392;9.976;2022-12-29T06:57:27;5.60;99.90
39865;DHT22;25538;48.392;9.976;2022-12-29T06:59:53;5.60;99.90
39865;DHT22;25538;48.392;9.976;2022-12-29T07:02:21;5.60;99.90
39865;DHT22;25538;48.392;9.976;2022-12-29T07:04:47;5.50;99.90
39865;DHT22;25538;48.392;9.976;2022-12-29T07:07:13;5.50;99.90
39865;DHT22;25538;48.392;9.976;2022-12-29T07:09:39;5.40;99.90
39865;DHT22;25538;48.392;9.976;2022-12-29T07:12:05;5.40;99.90
39865;DHT22;25538;48.392;9.976;2022-12-29T07:14:31;5.40;99.90
39865;DHT22;25538;48.392;9.976;2022-12-29T07:16:57;5.40;99.90
39865;DHT22;25538;48.392;9.976;2022-12-29T07:19:23;5.40;99.90
39865;DHT22;25538;48.392;9.976;2022-12-29T07:21:49;5.30;99.90
39865;DHT22;25538;48.392;9.976;2022-12-29T07:24:15;5.30;99.90
39865;DHT22;25538;48.392;9.976;2022-12-29T07:26:40;5.30;99.90
39865;DHT22;25538;48.392;9.976;2022-12-29T07:29:07;5.30;99.90
39865;DHT22;25538;48.392;9.976;2022-12-29T07:31:33;5.30;99.90
39865;DHT22;25538;48.392;9.976;2022-12-29T07:33:59;5.30;99.90
39865;DHT22;25538;48.392;9.976;2022-12-29T07:36:25;5.30;99.90
39865;DHT22;25538;48.392;9.976;2022-12-29T07:38:50;5.30;99.90
39865;DHT22;25538;48.392;9.976;2022-12-29T07:41:16;5.40;99.90
39865;DHT22;25538;48.392;9.976;2022-12-29T07:43:42;5.50;99.90
39865;DHT22;25538;48.392;9.976;2022-12-29T07:46:08;5.50;99.90
39865;DHT22;25538;48.392;9.976;2022-12-29T07:48:35;5.60;99.90
39865;DHT22;25538;48.392;9.976;2022-12-29T07:51:01;5.60;99.90
39865;DHT22;25538;48.392;9.976;2022-12-29T07:53:27;5.60;99.90
39865;DHT22;25538;48.392;9.976;2022-12-29T07:55:53;5.60;99.90
39865;DHT22;25538;48.392;9.976;2022-12-29T07:58:19;5.60;99.90
39865;DHT22;25538;48.392;9.976;2022-12-29T08:00:44;5.60;99.90
39865;DHT22;25538;48.392;9.976;2022-12-29T08:03:10;5.60;99.90
39865;DHT22;25538;48.392;9.976;2022-12-29T08:05:36;5.70;99.90
39865;DHT22;25538;48.392;9.976;2022-12-29T08:08:02;5.70;99.90
39865;DHT22;25538;48.392;9.976;2022-12-29T08:10:28;5.70;99.90
39865;DHT22;25538;48.392;9.976;2022-12-29T08:12:54;5.70;99.90
39865;DHT22;25538;48.392;9.976;2022-12-29T08:15:20;5.70;99.90
39865;DHT22;25538;48.392;9.976;2022-12-29T08:17:46;5.70;99.90
39865;DHT22;25538;48.392;9.976;2022-12-29T08:20:12;5.80;99.90
39865;DHT22;25538;48.392;9.976;2022-12-29T08:22:38;5.80;99.90
39865;DHT22;25538;48.392;9.976;2022-12-29T08:25:04;5.80;99.90
39865;DHT22;25538;48.392;9.976;2022-12-29T08:27:30;5.80;99.90
39865;DHT22;25538;48.392;9.976;2022-12-29T08:29:56;5.80;99.90
39865;DHT22;25538;48.392;9.976;2022-12-29T08:32:22;5.90;99.90
39865;DHT22;25538;48.392;9.976;2022-12-29T08:34:47;5.90;99.90
39865;DHT22;25538;48.392;9.976;2022-12-29T08:37:13;5.90;99.90
39865;DHT22;25538;48.392;9.976;2022-12-29T08:39:39;6.00;99.90
39865;DHT22;25538;48.392;9.976;2022-12-29T08:42:05;6.10;99.90
39865;DHT22;25538;48.392;9.976;2022-12-29T08:44:31;6.30;99.90
39865;DHT22;25538;48.392;9.976;2022-12-29T08:46:57;6.40;99.90
39865;DHT22;25538;48.392;9.976;2022-12-29T08:49:23;6.60;99.90
39865;DHT22;25538;48.392;9.976;2022-12-29T08:51:50;6.80;99.90
39865;DHT22;25538;48.392;9.976;2022-12-29T08:54:16;6.90;99.90
39865;DHT22;25538;48.392;9.976;2022-12-29T08:56:42;7.00;99.90
39865;DHT22;25538;48.392;9.976;2022-12-29T08:59:07;7.10;99.90
39865;DHT22;25538;48.392;9.976;2022-12-29T09:01:33;7.30;99.90
39865;DHT22;25538;48.392;9.976;2022-12-29T09:04:02;7.40;99.90
39865;DHT22;25538;48.392;9.976;2022-12-29T09:06:28;7.50;99.90
39865;DHT22;25538;48.392;9.976;2022-12-29T09:08:54;7.70;99.90
39865;DHT22;25538;48.392;9.976;2022-12-29T09:11:22;7.80;99.90
39865;DHT22;25538;48.392;9.976;2022-12-29T09:13:49;8.10;99.90
39865;DHT22;25538;48.392;9.976;2022-12-29T09:16:16;8.50;99.90
39865;DHT22;25538;48.392;9.976;2022-12-29T09:18:43;8.80;99.90
39865;DHT22;25538;48.392;9.976;2022-12-29T09:21:10;9.20;99.90
39865;DHT22;25538;48.392;9.976;2022-12-29T09:23:37;9.60;99.90
39865;DHT22;25538;48.392;9.976;2022-12-29T09:26:03;10.10;99.90
39865;DHT22;25538;48.392;9.976;2022-12-29T09:28:30;10.50;99.90
39865;DHT22;25538;48.392;9.976;2022-12-29T09:30:57;10.50;99.90
39865;DHT22;25538;48.392;9.976;2022-12-29T09:33:23;10.60;99.90
39865;DHT22;25538;48.392;9.976;2022-12-29T09:35:54;11.00;99.90
39865;DHT22;25538;48.392;9.976;2022-12-29T09:38:21;11.60;99.90
39865;DHT22;25538;48.392;9.976;2022-12-29T09:40:51;12.00;99.90
39865;DHT22;25538;48.392;9.976;2022-12-29T09:48:41;10.10;99.90
39865;DHT22;25538;48.392;9.976;2022-12-29T09:51:13;9.80;99.90
39865;DHT22;25538;48.392;9.976;2022-12-29T09:53:49;10.00;99.90
39865;DHT22;25538;48.392;9.976;2022-12-29T09:56:20;10.90;99.90
39865;DHT22;25538;48.392;9.976;2022-12-29T09:59:12;11.40;99.90
39865;DHT22;25538;48.392;9.976;2022-12-29T10:01:51;12.00;99.90
39865;DHT22;25538;48.392;9.976;2022-12-29T10:04:18;12.10;99.90
39865;DHT22;25538;48.392;9.976;2022-12-29T10:06:56;12.00;99.90
39865;DHT22;25538;48.392;9.976;2022-12-29T10:09:53;11.70;99.90
39865;DHT22;25538;48.392;9.976;2022-12-29T10:15:20;11.10;99.90
39865;DHT22;25538;48.392;9.976;2022-12-29T10:17:54;10.80;99.90
39865;DHT22;25538;48.392;9.976;2022-12-29T10:20:58;10.60;99.90
39865;DHT22;25538;48.392;9.976;2022-12-29T10:23:50;10.70;99.90
39865;DHT22;25538;48.392;9.976;2022-12-29T10:26:26;11.40;99.90
39865;DHT22;25538;48.392;9.976;2022-12-29T10:28:59;11.90;99.90
39865;DHT22;25538;48.392;9.976;2022-12-29T10:32:00;12.50;99.90
39865;DHT22;25538;48.392;9.976;2022-12-29T10:34:49;12.40;99.90
39865;DHT22;25538;48.392;9.976;2022-12-29T10:39:55;12.50;99.90
39865;DHT22;25538;48.392;9.976;2022-12-29T10:44:58;14.00;99.90
39865;DHT22;25538;48.392;9.976;2022-12-29T10:47:31;14.80;99.90
39865;DHT22;25538;48.392;9.976;2022-12-29T10:50:00;14.70;99.90
39865;DHT22;25538;48.392;9.976;2022-12-29T10:52:28;14.00;99.90
39865;DHT22;25538;48.392;9.976;2022-12-29T10:55:00;13.60;99.90
39865;DHT22;25538;48.392;9.976;2022-12-29T10:57:37;13.60;99.90
39865;DHT22;25538;48.392;9.976;2022-12-29T11:00:11;13.70;99.90
39865;DHT22;25538;48.392;9.976;2022-12-29T11:05:34;13.00;99.90
39865;DHT22;25538;48.392;9.976;2022-12-29T11:08:04;12.50;99.90
39865;DHT22;25538;48.392;9.976;2022-12-29T11:13:11;11.70;99.90
39865;DHT22;25538;48.392;9.976;2022-12-29T11:15:45;11.50;99.90
39865;DHT22;25538;48.392;9.976;2022-12-29T11:18:25;11.50;99.90
39865;DHT22;25538;48.392;9.976;2022-12-29T11:20:59;11.40;99.90
39865;DHT22;25538;48.392;9.976;2022-12-29T11:23:40;11.40;99.90
39865;DHT22;25538;48.392;9.976;2022-12-29T11:26:20;11.40;99.90
39865;DHT22;25538;48.392;9.976;2022-12-29T11:31:43;11.30;99.90
39865;DHT22;25538;48.392;9.976;2022-12-29T11:34:17;11.30;99.90
39865;DHT22;25538;48.392;9.976;2022-12-29T11:36:44;11.30;99.90
39865;DHT22;25538;48.392;9.976;2022-12-29T11:42:17;11.30;99.90
39865;DHT22;25538;48.392;9.976;2022-12-29T11:44:46;11.40;99.90
39865;DHT22;25538;48.392;9.976;2022-12-29T11:47:30;11.40;99.90
39865;DHT22;25538;48.392;9.976;2022-12-29T11:50:00;11.80;99.90
39865;DHT22;25538;48.392;9.976;2022-12-29T11:52:30;12.20;99.90
39865;DHT22;25538;48.392;9.976;2022-12-29T11:55:00;12.40;99.90
39865;DHT22;25538;48.392;9.976;2022-12-29T11:57:27;12.50;99.90
39865;DHT22;25538;48.392;9.976;2022-12-29T11:59:55;12.60;99.90
39865;DHT22;25538;48.392;9.976;2022-12-29T12:02:38;12.60;99.90
39865;DHT22;25538;48.392;9.976;2022-12-29T12:05:20;12.50;99.90
39865;DHT22;25538;48.392;9.976;2022-12-29T12:07:50;12.50;99.90
39865;DHT22;25538;48.392;9.976;2022-12-29T12:10:19;12.40;99.90
39865;DHT22;25538;48.392;9.976;2022-12-29T12:13:04;12.50;99.90
39865;DHT22;25538;48.392;9.976;2022-12-29T12:15:39;12.80;99.90
39865;DHT22;25538;48.392;9.976;2022-12-29T12:20:44;12.90;99.90
39865;DHT22;25538;48.392;9.976;2022-12-29T12:25:59;12.20;99.90
39865;DHT22;25538;48.392;9.976;2022-12-29T12:31:13;11.50;99.90
39865;DHT22;25538;48.392;9.976;2022-12-29T12:33:47;11.30;99.90
39865;DHT22;25538;48.392;9.976;2022-12-29T12:50:14;11.00;99.90
39865;DHT22;25538;48.392;9.976;2022-12-29T13:00:26;10.90;99.90
39865;DHT22;25538;48.392;9.976;2022-12-29T13:03:16;10.90;99.90
39865;DHT22;25538;48.392;9.976;2022-12-29T13:12:01;11.00;99.90
39865;DHT22;25538;48.392;9.976;2022-12-29T13:23:05;11.00;99.90
39865;DHT22;25538;48.392;9.976;2022-12-29T13:25:47;11.00;99.90
39865;DHT22;25538;48.392;9.976;2022-12-29T13:28:50;11.00;99.90
39865;DHT22;25538;48.392;9.976;2022-12-29T13:31:35;11.00;99.90
39865;DHT22;25538;48.392;9.976;2022-12-29T13:34:17;11.00;99.90
39865;DHT22;25538;48.392;9.976;2022-12-29T13:36:53;10.90;99.90
39865;DHT22;25538;48.392;9.976;2022-12-29T13:39:24;11.00;99.90
39865;DHT22;25538;48.392;9.976;2022-12-29T13:41:54;11.00;99.90
39865;DHT22;25538;48.392;9.976;2022-12-29T13:44:25;11.00;99.90
39865;DHT22;25538;48.392;9.976;2022-12-29T13:46:54;11.00;99.90
39865;DHT22;25538;48.392;9.976;2022-12-29T13:49:22;11.00;99.90
39865;DHT22;25538;48.392;9.976;2022-12-29T13:51:53;10.90;99.90
39865;DHT22;25538;48.392;9.976;2022-12-29T13:54:30;10.90;99.90
39865;DHT22;25538;48.392;9.976;2022-12-29T13:57:12;10.90;99.90
39865;DHT22;25538;48.392;9.976;2022-12-29T13:59:54;10.90;99.90
39865;DHT22;25538;48.392;9.976;2022-12-29T14:07:56;10.80;99.90
39865;DHT22;25538;48.392;9.976;2022-12-29T14:10:45;10.80;99.90
39865;DHT22;25538;48.392;9.976;2022-12-29T14:13:16;10.80;99.90
39865;DHT22;25538;48.392;9.976;2022-12-29T14:15:45;10.80;99.90
39865;DHT22;25538;48.392;9.976;2022-12-29T14:18:19;10.90;99.90
39865;DHT22;25538;48.392;9.976;2022-12-29T14:21:10;11.20;99.90
39865;DHT22;25538;48.392;9.976;2022-12-29T14:23:45;12.00;99.90
39865;DHT22;25538;48.392;9.976;2022-12-29T14:26:17;12.50;99.90
39865;DHT22;25538;48.392;9.976;2022-12-29T14:31:52;13.50;99.90
39865;DHT22;25538;48.392;9.976;2022-12-29T14:36:57;14.10;99.90
39865;DHT22;25538;48.392;9.976;2022-12-29T14:49:48;11.90;99.90
39865;DHT22;25538;48.392;9.976;2022-12-29T14:52:19;11.60;99.90
39865;DHT22;25538;48.392;9.976;2022-12-29T14:54:52;11.50;99.90
39865;DHT22;25538;48.392;9.976;2022-12-29T14:57:34;11.30;99.90
39865;DHT22;25538;48.392;9.976;2022-12-29T15:00:21;11.20;99.90
39865;DHT22;25538;48.392;9.976;2022-12-29T15:03:00;11.10;99.90
39865;DHT22;25538;48.392;9.976;2022-12-29T15:05:36;11.00;99.90
39865;DHT22;25538;48.392;9.976;2022-12-29T15:08:04;10.80;99.90
39865;DHT22;25538;48.392;9.976;2022-12-29T15:10:39;10.80;99.90
39865;DHT22;25538;48.392;9.976;2022-12-29T15:13:16;10.70;99.90
39865;DHT22;25538;48.392;9.976;2022-12-29T15:15:42;10.60;99.90
39865;DHT22;25538;48.392;9.976;2022-12-29T15:18:26;10.50;99.90
39865;DHT22;25538;48.392;9.976;2022-12-29T15:20:58;10.50;99.90
39865;DHT22;25538;48.392;9.976;2022-12-29T15:23:25;10.40;99.90
39865;DHT22;25538;48.392;9.976;2022-12-29T15:26:02;10.30;99.90
39865;DHT22;25538;48.392;9.976;2022-12-29T15:28:41;10.30;99.90
39865;DHT22;25538;48.392;9.976;2022-12-29T15:33:45;10.10;99.90
39865;DHT22;25538;48.392;9.976;2022-12-29T15:36:21;10.00;99.90
39865;DHT22;25538;48.392;9.976;2022-12-29T15:38:49;10.10;99.90
39865;DHT22;25538;48.392;9.976;2022-12-29T15:44:36;10.00;99.90
39865;DHT22;25538;48.392;9.976;2022-12-29T15:47:22;9.90;99.90
39865;DHT22;25538;48.392;9.976;2022-12-29T15:49:52;9.80;99.90
39865;DHT22;25538;48.392;9.976;2022-12-29T15:52:20;9.80;99.90
39865;DHT22;25538;48.392;9.976;2022-12-29T15:54:49;9.80;99.90
39865;DHT22;25538;48.392;9.976;2022-12-29T15:57:29;9.70;99.90
39865;DHT22;25538;48.392;9.976;2022-12-29T15:59:56;9.70;99.90
39865;DHT22;25538;48.392;9.976;2022-12-29T16:02:23;9.70;99.90
39865;DHT22;25538;48.392;9.976;2022-12-29T16:04:50;9.60;99.90
39865;DHT22;25538;48.392;9.976;2022-12-29T16:07:34;9.60;99.90
39865;DHT22;25538;48.392;9.976;2022-12-29T16:10:03;9.60;99.90
39865;DHT22;25538;48.392;9.976;2022-12-29T16:12:35;9.60;99.90
39865;DHT22;25538;48.392;9.976;2022-12-29T16:15:07;9.60;99.90
39865;DHT22;25538;48.392;9.976;2022-12-29T16:17:46;9.60;99.90
39865;DHT22;25538;48.392;9.976;2022-12-29T16:20:18;9.50;99.90
39865;DHT22;25538;48.392;9.976;2022-12-29T16:22:50;9.50;99.90
39865;DHT22;25538;48.392;9.976;2022-12-29T16:25:28;9.40;99.90
39865;DHT22;25538;48.392;9.976;2022-12-29T16:28:00;9.30;99.90
39865;DHT22;25538;48.392;9.976;2022-12-29T16:30:29;9.30;99.90
39865;DHT22;25538;48.392;9.976;2022-12-29T16:32:58;9.20;99.90
39865;DHT22;25538;48.392;9.976;2022-12-29T16:35:44;9.20;99.90
39865;DHT22;25538;48.392;9.976;2022-12-29T16:38:20;9.10;99.90
39865;DHT22;25538;48.392;9.976;2022-12-29T16:43:33;9.00;99.90
39865;DHT22;25538;48.392;9.976;2022-12-29T16:48:45;8.90;99.90
39865;DHT22;25538;48.392;9.976;2022-12-29T16:51:15;8.90;99.90
39865;DHT22;25538;48.392;9.976;2022-12-29T16:53:47;8.90;99.90
39865;DHT22;25538;48.392;9.976;2022-12-29T16:56:20;8.90;99.90
39865;DHT22;25538;48.392;9.976;2022-12-29T16:58:49;8.90;99.90
39865;DHT22;25538;48.392;9.976;2022-12-29T17:01:16;8.80;99.90
39865;DHT22;25538;48.392;9.976;2022-12-29T17:03:57;8.80;99.90
39865;DHT22;25538;48.392;9.976;2022-12-29T17:06:24;8.80;99.90
39865;DHT22;25538;48.392;9.976;2022-12-29T17:08:50;8.80;99.90
39865;DHT22;25538;48.392;9.976;2022-12-29T17:11:24;8.70;99.90
39865;DHT22;25538;48.392;9.976;2022-12-29T17:16:57;8.70;99.90
39865;DHT22;25538;48.392;9.976;2022-12-29T17:19:33;8.60;99.90
39865;DHT22;25538;48.392;9.976;2022-12-29T17:22:00;8.60;99.90
39865;DHT22;25538;48.392;9.976;2022-12-29T17:24:27;8.60;99.90
39865;DHT22;25538;48.392;9.976;2022-12-29T17:26:56;8.60;99.90
39865;DHT22;25538;48.392;9.976;2022-12-29T17:29:34;8.60;99.90
39865;DHT22;25538;48.392;9.976;2022-12-29T17:32:03;8.60;99.90
39865;DHT22;25538;48.392;9.976;2022-12-29T17:34:30;8.60;99.90
39865;DHT22;25538;48.392;9.976;2022-12-29T17:36:56;8.60;99.90
39865;DHT22;25538;48.392;9.976;2022-12-29T17:39:22;8.60;99.90
39865;DHT22;25538;48.392;9.976;2022-12-29T17:41:48;8.60;99.90
39865;DHT22;25538;48.392;9.976;2022-12-29T17:44:18;8.60;99.90
39865;DHT22;25538;48.392;9.976;2022-12-29T17:46:46;8.60;99.90
39865;DHT22;25538;48.392;9.976;2022-12-29T17:49:15;8.60;99.90
39865;DHT22;25538;48.392;9.976;2022-12-29T17:51:45;8.50;99.90
39865;DHT22;25538;48.392;9.976;2022-12-29T17:54:22;8.50;99.90
39865;DHT22;25538;48.392;9.976;2022-12-29T17:56:48;8.50;99.90
39865;DHT22;25538;48.392;9.976;2022-12-29T17:59:15;8.50;99.90
39865;DHT22;25538;48.392;9.976;2022-12-29T18:01:42;8.50;99.90
39865;DHT22;25538;48.392;9.976;2022-12-29T18:04:17;8.40;99.90
39865;DHT22;25538;48.392;9.976;2022-12-29T18:06:45;8.40;99.90
39865;DHT22;25538;48.392;9.976;2022-12-29T18:09:11;8.40;99.90
39865;DHT22;25538;48.392;9.976;2022-12-29T18:11:40;8.40;99.90
39865;DHT22;25538;48.392;9.976;2022-12-29T18:14:16;8.40;99.90
39865;DHT22;25538;48.392;9.976;2022-12-29T18:16:42;8.40;99.90
39865;DHT22;25538;48.392;9.976;2022-12-29T18:19:08;8.30;99.90
39865;DHT22;25538;48.392;9.976;2022-12-29T18:21:35;8.30;99.90
39865;DHT22;25538;48.392;9.976;2022-12-29T18:24:01;8.30;99.90
39865;DHT22;25538;48.392;9.976;2022-12-29T18:26:29;8.20;99.90
39865;DHT22;25538;48.392;9.976;2022-12-29T18:29:00;8.20;99.90
39865;DHT22;25538;48.392;9.976;2022-12-29T18:31:28;8.20;99.90